sensor_id;sensor_type;location;lat;lon;timestamp;temperature;humidity
67817;DHT22;54614;47.576;7.524;2023-05-10T00:01:08;26.50;56.20
67817;DHT22;54614;47.576;7.524;2023-05-10T00:03:34;26.50;56.10
67817;DHT22;54614;47.576;7.524;2023-05-10T00:06:00;26.50;56.10
67817;DHT22;54614;47.576;7.524;2023-05-10T00:08:25;26.50;56.20
67817;DHT22;54614;47.576;7.524;2023-05-10T00:10:52;26.50;56.10
67817;DHT22;54614;47.576;7.524;2023-05-10T00:13:18;26.50;56.20
67817;DHT22;54614;47.576;7.524;2023-05-10T00:15:44;26.50;56.10
67817;DHT22;54614;47.576;7.524;2023-05-10T00:18:10;26.50;56.10
67817;DHT22;54614;47.576;7.524;2023-05-10T00:20:35;26.50;56.10
67817;DHT22;54614;47.576;7.524;2023-05-10T00:23:01;26.50;56.10
67817;DHT22;54614;47.576;7.524;2023-05-10T00:25:27;26.50;56.10
67817;DHT22;54614;47.576;7.524;2023-05-10T00:27:53;26.50;56.00
67817;DHT22;54614;47.576;7.524;2023-05-10T00:30:20;26.50;56.10
67817;DHT22;54614;47.576;7.524;2023-05-10T00:32:46;26.50;56.60
67817;DHT22;54614;47.576;7.524;2023-05-10T00:35:13;26.50;56.10
67817;DHT22;54614;47.576;7.524;2023-05-10T00:37:39;26.50;56.10
67817;DHT22;54614;47.576;7.524;2023-05-10T00:40:06;26.50;56.10
67817;DHT22;54614;47.576;7.524;2023-05-10T00:42:32;26.50;56.00
67817;DHT22;54614;47.576;7.524;2023-05-10T00:45:01;26.50;56.00
67817;DHT22;54614;47.576;7.524;2023-05-10T00:47:27;26.50;56.00
67817;DHT22;54614;47.576;7.524;2023-05-10T00:49:54;26.50;56.00
67817;DHT22;54614;47.576;7.524;2023-05-10T00:52:21;26.50;56.00
67817;DHT22;54614;47.576;7.524;2023-05-10T00:54:50;26.50;56.00
67817;DHT22;54614;47.576;7.524;2023-05-10T00:57:17;26.50;56.00
67817;DHT22;54614;47.576;7.524;2023-05-10T00:59:43;26.50;56.00
67817;DHT22;54614;47.576;7.524;2023-05-10T01:02:09;26.50;56.00
67817;DHT22;54614;47.576;7.524;2023-05-10T01:04:36;26.50;56.00
67817;DHT22;54614;47.576;7.524;2023-05-10T01:07:03;26.50;56.00
67817;DHT22;54614;47.576;7.524;2023-05-10T01:09:29;26.50;56.00
67817;DHT22;54614;47.576;7.524;2023-05-10T01:11:55;26.50;56.00
67817;DHT22;54614;47.576;7.524;2023-05-10T01:14:21;26.50;55.90
67817;DHT22;54614;47.576;7.524;2023-05-10T01:16:49;26.50;55.90
67817;DHT22;54614;47.576;7.524;2023-05-10T01:19:29;26.50;55.90
67817;DHT22;54614;47.576;7.524;2023-05-10T01:28:00;26.50;55.90
67817;DHT22;54614;47.576;7.524;2023-05-10T01:30:57;26.50;56.00
67817;DHT22;54614;47.576;7.524;2023-05-10T01:34:00;26.40;55.90
67817;DHT22;54614;47.576;7.524;2023-05-10T01:36:45;26.40;55.80
67817;DHT22;54614;47.576;7.524;2023-05-10T01:39:31;26.40;55.90
67817;DHT22;54614;47.576;7.524;2023-05-10T01:42:14;26.50;55.90
67817;DHT22;54614;47.576;7.524;2023-05-10T01:45:02;26.50;55.90
67817;DHT22;54614;47.576;7.524;2023-05-10T01:47:50;26.40;55.90
67817;DHT22;54614;47.576;7.524;2023-05-10T01:50:27;26.50;55.90
67817;DHT22;54614;47.576;7.524;2023-05-10T01:52:57;26.50;55.90
67817;DHT22;54614;47.576;7.524;2023-05-10T01:55:32;26.40;55.90
67817;DHT22;54614;47.576;7.524;2023-05-10T01:58:09;26.40;55.90
67817;DHT22;54614;47.576;7.524;2023-05-10T02:00:44;26.40;55.90
67817;DHT22;54614;47.576;7.524;2023-05-10T02:03:13;26.40;55.90
67817;DHT22;54614;47.576;7.524;2023-05-10T02:05:43;26.40;55.90
67817;DHT22;54614;47.576;7.524;2023-05-10T02:08:12;26.40;55.80
67817;DHT22;54614;47.576;7.524;2023-05-10T02:10:40;26.40;55.90
67817;DHT22;54614;47.576;7.524;2023-05-10T02:13:09;26.40;55.90
67817;DHT22;54614;47.576;7.524;2023-05-10T02:15:37;26.40;55.80
67817;DHT22;54614;47.576;7.524;2023-05-10T02:18:05;26.40;55.90
67817;DHT22;54614;47.576;7.524;2023-05-10T02:20:32;26.40;55.80
67817;DHT22;54614;47.576;7.524;2023-05-10T02:23:00;26.40;55.80
67817;DHT22;54614;47.576;7.524;2023-05-10T02:25:29;26.40;55.80
67817;DHT22;54614;47.576;7.524;2023-05-10T02:27:57;26.40;55.80
67817;DHT22;54614;47.576;7.524;2023-05-10T02:30:27;26.40;55.80
67817;DHT22;54614;47.576;7.524;2023-05-10T02:32:56;26.40;55.80
67817;DHT22;54614;47.576;7.524;2023-05-10T02:35:25;26.40;55.80
67817;DHT22;54614;47.576;7.524;2023-05-10T02:37:53;26.40;55.80
67817;DHT22;54614;47.576;7.524;2023-05-10T02:40:21;26.40;55.80
67817;DHT22;54614;47.576;7.524;2023-05-10T02:42:50;26.40;55.80
67817;DHT22;54614;47.576;7.524;2023-05-10T02:45:22;26.40;55.80
67817;DHT22;54614;47.576;7.524;2023-05-10T02:47:52;26.40;55.80
67817;DHT22;54614;47.576;7.524;2023-05-10T02:50:18;26.40;55.80
67817;DHT22;54614;47.576;7.524;2023-05-10T02:52:51;26.40;55.80
67817;DHT22;54614;47.576;7.524;2023-05-10T02:55:21;26.40;55.80
67817;DHT22;54614;47.576;7.524;2023-05-10T02:57:59;26.40;55.80
67817;DHT22;54614;47.576;7.524;2023-05-10T03:00:26;26.40;55.80
67817;DHT22;54614;47.576;7.524;2023-05-10T03:02:53;26.40;55.80
67817;DHT22;54614;47.576;7.524;2023-05-10T03:05:19;26.40;55.80
67817;DHT22;54614;47.576;7.524;2023-05-10T03:07:46;26.40;55.80
67817;DHT22;54614;47.576;7.524;2023-05-10T03:10:12;26.40;55.80
67817;DHT22;54614;47.576;7.524;2023-05-10T03:13:08;26.40;55.80
67817;DHT22;54614;47.576;7.524;2023-05-10T03:18:49;26.40;55.70
67817;DHT22;54614;47.576;7.524;2023-05-10T03:21:22;26.40;55.70
67817;DHT22;54614;47.576;7.524;2023-05-10T03:23:59;26.40;55.70
67817;DHT22;54614;47.576;7.524;2023-05-10T03:26:38;26.40;55.70
67817;DHT22;54614;47.576;7.524;2023-05-10T03:29:06;26.40;55.70
67817;DHT22;54614;47.576;7.524;2023-05-10T03:31:34;26.40;55.70
67817;DHT22;54614;47.576;7.524;2023-05-10T03:34:00;26.40;55.70
67817;DHT22;54614;47.576;7.524;2023-05-10T03:36:25;26.40;55.70
67817;DHT22;54614;47.576;7.524;2023-05-10T03:38:51;26.40;55.70
67817;DHT22;54614;47.576;7.524;2023-05-10T03:41:17;26.40;55.70
67817;DHT22;54614;47.576;7.524;2023-05-10T03:43:43;26.40;55.70
67817;DHT22;54614;47.576;7.524;2023-05-10T03:46:08;26.40;55.70
67817;DHT22;54614;47.576;7.524;2023-05-10T03:48:34;26.40;55.70
67817;DHT22;54614;47.576;7.524;2023-05-10T03:51:00;26.40;55.70
67817;DHT22;54614;47.576;7.524;2023-05-10T03:53:26;26.40;55.60
67817;DHT22;54614;47.576;7.524;2023-05-10T03:55:52;26.40;55.70
67817;DHT22;54614;47.576;7.524;2023-05-10T03:58:18;26.40;55.60
67817;DHT22;54614;47.576;7.524;2023-05-10T04:00:44;26.40;55.50
67817;DHT22;54614;47.576;7.524;2023-05-10T04:03:13;26.40;55.60
67817;DHT22;54614;47.576;7.524;2023-05-10T04:05:40;26.40;55.60
67817;DHT22;54614;47.576;7.524;2023-05-10T04:08:06;26.40;55.60
67817;DHT22;54614;47.576;7.524;2023-05-10T04:10:32;26.40;55.50
67817;DHT22;54614;47.576;7.524;2023-05-10T04:12:58;26.40;55.60
67817;DHT22;54614;47.576;7.524;2023-05-10T04:15:23;26.40;55.70
67817;DHT22;54614;47.576;7.524;2023-05-10T04:17:49;26.40;55.50
67817;DHT22;54614;47.576;7.524;2023-05-10T04:20:15;26.40;55.60
67817;DHT22;54614;47.576;7.524;2023-05-10T04:22:41;26.40;55.60
67817;DHT22;54614;47.576;7.524;2023-05-10T04:25:08;26.40;55.60
67817;DHT22;54614;47.576;7.524;2023-05-10T04:27:34;26.40;55.60
67817;DHT22;54614;47.576;7.524;2023-05-10T04:30:00;26.40;55.60
67817;DHT22;54614;47.576;7.524;2023-05-10T04:32:26;26.40;55.70
67817;DHT22;54614;47.576;7.524;2023-05-10T04:34:52;26.40;55.60
67817;DHT22;54614;47.576;7.524;2023-05-10T04:37:18;26.40;55.60
67817;DHT22;54614;47.576;7.524;2023-05-10T04:39:44;26.40;55.50
67817;DHT22;54614;47.576;7.524;2023-05-10T04:42:10;26.40;55.60
67817;DHT22;54614;47.576;7.524;2023-05-10T04:44:36;26.40;55.50
67817;DHT22;54614;47.576;7.524;2023-05-10T04:47:02;26.40;55.40
67817;DHT22;54614;47.576;7.524;2023-05-10T04:49:29;26.40;55.40
67817;DHT22;54614;47.576;7.524;2023-05-10T04:51:55;26.40;55.40
67817;DHT22;54614;47.576;7.524;2023-05-10T04:54:21;26.40;55.40
67817;DHT22;54614;47.576;7.524;2023-05-10T04:56:47;26.40;55.40
67817;DHT22;54614;47.576;7.524;2023-05-10T04:59:13;26.40;55.40
67817;DHT22;54614;47.576;7.524;2023-05-10T05:01:39;26.40;55.50
67817;DHT22;54614;47.576;7.524;2023-05-10T05:04:05;26.30;55.40
67817;DHT22;54614;47.576;7.524;2023-05-10T05:06:32;26.30;55.50
67817;DHT22;54614;47.576;7.524;2023-05-10T05:08:57;26.30;55.50
67817;DHT22;54614;47.576;7.524;2023-05-10T05:11:23;26.40;55.50
67817;DHT22;54614;47.576;7.524;2023-05-10T05:13:50;26.40;55.50
67817;DHT22;54614;47.576;7.524;2023-05-10T05:16:16;26.40;55.50
67817;DHT22;54614;47.576;7.524;2023-05-10T05:18:42;26.40;55.40
67817;DHT22;54614;47.576;7.524;2023-05-10T05:21:17;26.40;55.40
67817;DHT22;54614;47.576;7.524;2023-05-10T05:23:44;26.40;55.40
67817;DHT22;54614;47.576;7.524;2023-05-10T05:26:10;26.40;55.30
67817;DHT22;54614;47.576;7.524;2023-05-10T05:28:36;26.40;55.40
67817;DHT22;54614;47.576;7.524;2023-05-10T05:31:05;26.40;55.40
67817;DHT22;54614;47.576;7.524;2023-05-10T05:33:33;26.40;55.30
67817;DHT22;54614;47.576;7.524;2023-05-10T05:36:03;26.40;55.40
67817;DHT22;54614;47.576;7.524;2023-05-10T05:38:30;26.40;55.40
67817;DHT22;54614;47.576;7.524;2023-05-10T05:40:56;26.40;55.40
67817;DHT22;54614;47.576;7.524;2023-05-10T05:43:22;26.40;55.40
67817;DHT22;54614;47.576;7.524;2023-05-10T05:45:48;26.40;55.30
67817;DHT22;54614;47.576;7.524;2023-05-10T05:48:14;26.40;55.30
67817;DHT22;54614;47.576;7.524;2023-05-10T05:50:40;26.40;56.10
67817;DHT22;54614;47.576;7.524;2023-05-10T05:53:06;26.40;55.70
67817;DHT22;54614;47.576;7.524;2023-05-10T05:55:31;26.40;55.60
67817;DHT22;54614;47.576;7.524;2023-05-10T05:57:58;26.40;55.50
67817;DHT22;54614;47.576;7.524;2023-05-10T06:00:24;26.40;55.40
67817;DHT22;54614;47.576;7.524;2023-05-10T06:02:50;26.40;55.40
67817;DHT22;54614;47.576;7.524;2023-05-10T06:05:16;26.50;55.50
67817;DHT22;54614;47.576;7.524;2023-05-10T06:07:41;26.50;55.40
67817;DHT22;54614;47.576;7.524;2023-05-10T06:10:08;26.50;55.50
67817;DHT22;54614;47.576;7.524;2023-05-10T06:12:34;26.50;55.50
67817;DHT22;54614;47.576;7.524;2023-05-10T06:15:01;26.50;55.50
67817;DHT22;54614;47.576;7.524;2023-05-10T06:17:27;26.50;55.50
67817;DHT22;54614;47.576;7.524;2023-05-10T06:19:54;26.50;55.90
67817;DHT22;54614;47.576;7.524;2023-05-10T06:22:20;26.50;56.00
67817;DHT22;54614;47.576;7.524;2023-05-10T06:24:48;26.50;56.40
67817;DHT22;54614;47.576;7.524;2023-05-10T06:27:14;26.40;56.40
67817;DHT22;54614;47.576;7.524;2023-05-10T06:29:40;26.40;56.50
67817;DHT22;54614;47.576;7.524;2023-05-10T06:32:06;26.40;56.90
67817;DHT22;54614;47.576;7.524;2023-05-10T06:34:32;26.30;57.20
67817;DHT22;54614;47.576;7.524;2023-05-10T06:36:57;26.30;57.10
67817;DHT22;54614;47.576;7.524;2023-05-10T06:39:23;26.40;57.00
67817;DHT22;54614;47.576;7.524;2023-05-10T06:41:49;26.40;56.40
67817;DHT22;54614;47.576;7.524;2023-05-10T06:44:15;26.50;56.20
67817;DHT22;54614;47.576;7.524;2023-05-10T06:46:40;26.50;56.30
67817;DHT22;54614;47.576;7.524;2023-05-10T06:49:07;26.40;56.60
67817;DHT22;54614;47.576;7.524;2023-05-10T06:51:33;26.30;56.60
67817;DHT22;54614;47.576;7.524;2023-05-10T06:53:59;26.20;56.50
67817;DHT22;54614;47.576;7.524;2023-05-10T06:56:25;26.20;56.10
67817;DHT22;54614;47.576;7.524;2023-05-10T06:58:51;26.20;55.70
67817;DHT22;54614;47.576;7.524;2023-05-10T07:01:17;26.10;55.50
67817;DHT22;54614;47.576;7.524;2023-05-10T07:03:42;26.10;55.50
67817;DHT22;54614;47.576;7.524;2023-05-10T07:06:08;26.10;55.60
67817;DHT22;54614;47.576;7.524;2023-05-10T07:08:34;26.10;55.90
67817;DHT22;54614;47.576;7.524;2023-05-10T07:11:04;26.10;56.00
67817;DHT22;54614;47.576;7.524;2023-05-10T07:13:34;26.10;55.90
67817;DHT22;54614;47.576;7.524;2023-05-10T07:16:01;26.10;55.60
67817;DHT22;54614;47.576;7.524;2023-05-10T07:18:27;26.20;55.50
67817;DHT22;54614;47.576;7.524;2023-05-10T07:20:54;26.20;55.10
67817;DHT22;54614;47.576;7.524;2023-05-10T07:23:20;26.20;55.50
67817;DHT22;54614;47.576;7.524;2023-05-10T07:25:50;26.30;54.90
67817;DHT22;54614;47.576;7.524;2023-05-10T07:28:19;26.30;54.70
67817;DHT22;54614;47.576;7.524;2023-05-10T07:30:46;26.40;56.40
67817;DHT22;54614;47.576;7.524;2023-05-10T07:33:13;26.30;56.50
67817;DHT22;54614;47.576;7.524;2023-05-10T07:35:39;26.20;56.50
67817;DHT22;54614;47.576;7.524;2023-05-10T07:38:05;26.30;55.10
67817;DHT22;54614;47.576;7.524;2023-05-10T07:40:31;26.30;55.00
67817;DHT22;54614;47.576;7.524;2023-05-10T07:42:58;26.40;55.00
67817;DHT22;54614;47.576;7.524;2023-05-10T07:45:25;26.40;54.90
67817;DHT22;54614;47.576;7.524;2023-05-10T07:47:51;26.40;54.70
67817;DHT22;54614;47.576;7.524;2023-05-10T07:50:16;26.40;54.70
67817;DHT22;54614;47.576;7.524;2023-05-10T07:52:42;26.40;55.00
67817;DHT22;54614;47.576;7.524;2023-05-10T07:55:08;26.40;54.80
67817;DHT22;54614;47.576;7.524;2023-05-10T07:57:34;26.40;54.80
67817;DHT22;54614;47.576;7.524;2023-05-10T08:00:00;26.40;54.80
67817;DHT22;54614;47.576;7.524;2023-05-10T08:02:26;26.40;54.90
67817;DHT22;54614;47.576;7.524;2023-05-10T08:04:52;26.40;54.90
67817;DHT22;54614;47.576;7.524;2023-05-10T08:07:18;26.40;55.00
67817;DHT22;54614;47.576;7.524;2023-05-10T08:09:44;26.40;55.00
67817;DHT22;54614;47.576;7.524;2023-05-10T08:12:10;26.40;55.00
67817;DHT22;54614;47.576;7.524;2023-05-10T08:14:35;26.40;54.90
67817;DHT22;54614;47.576;7.524;2023-05-10T08:17:04;26.50;54.80
67817;DHT22;54614;47.576;7.524;2023-05-10T08:19:30;26.50;54.70
67817;DHT22;54614;47.576;7.524;2023-05-10T08:21:56;26.50;54.60
67817;DHT22;54614;47.576;7.524;2023-05-10T08:24:22;26.50;54.60
67817;DHT22;54614;47.576;7.524;2023-05-10T08:26:48;26.50;54.50
67817;DHT22;54614;47.576;7.524;2023-05-10T08:29:14;26.50;54.70
67817;DHT22;54614;47.576;7.524;2023-05-10T08:31:40;26.50;55.00
67817;DHT22;54614;47.576;7.524;2023-05-10T08:34:07;26.50;54.80
67817;DHT22;54614;47.576;7.524;2023-05-10T08:36:32;26.50;55.00
67817;DHT22;54614;47.576;7.524;2023-05-10T08:38:58;26.50;55.20
67817;DHT22;54614;47.576;7.524;2023-05-10T08:41:25;26.40;55.10
67817;DHT22;54614;47.576;7.524;2023-05-10T08:43:53;26.50;55.40
67817;DHT22;54614;47.576;7.524;2023-05-10T08:46:21;26.40;58.20
67817;DHT22;54614;47.576;7.524;2023-05-10T08:48:50;26.40;58.20
67817;DHT22;54614;47.576;7.524;2023-05-10T08:51:19;26.40;57.20
67817;DHT22;54614;47.576;7.524;2023-05-10T08:53:48;26.40;56.70
67817;DHT22;54614;47.576;7.524;2023-05-10T08:56:15;26.40;56.50
67817;DHT22;54614;47.576;7.524;2023-05-10T08:58:43;26.40;56.40
67817;DHT22;54614;47.576;7.524;2023-05-10T09:01:09;26.40;56.30
67817;DHT22;54614;47.576;7.524;2023-05-10T09:03:41;26.40;56.20
67817;DHT22;54614;47.576;7.524;2023-05-10T09:06:07;26.50;56.10
67817;DHT22;54614;47.576;7.524;2023-05-10T09:08:33;26.50;56.10
67817;DHT22;54614;47.576;7.524;2023-05-10T09:11:00;26.50;56.10
67817;DHT22;54614;47.576;7.524;2023-05-10T09:13:27;26.50;56.10
67817;DHT22;54614;47.576;7.524;2023-05-10T09:15:54;26.50;56.00
67817;DHT22;54614;47.576;7.524;2023-05-10T09:18:19;26.50;55.90
67817;DHT22;54614;47.576;7.524;2023-05-10T09:20:45;26.50;56.00
67817;DHT22;54614;47.576;7.524;2023-05-10T09:23:11;26.50;55.90
67817;DHT22;54614;47.576;7.524;2023-05-10T09:25:37;26.50;56.50
67817;DHT22;54614;47.576;7.524;2023-05-10T09:28:06;26.50;55.80
67817;DHT22;54614;47.576;7.524;2023-05-10T09:30:34;26.50;55.80
67817;DHT22;54614;47.576;7.524;2023-05-10T09:33:01;26.50;55.70
67817;DHT22;54614;47.576;7.524;2023-05-10T09:35:30;26.60;55.80
67817;DHT22;54614;47.576;7.524;2023-05-10T09:38:00;26.50;55.70
67817;DHT22;54614;47.576;7.524;2023-05-10T09:40:29;26.50;55.60
67817;DHT22;54614;47.576;7.524;2023-05-10T09:42:58;26.50;55.60
67817;DHT22;54614;47.576;7.524;2023-05-10T09:45:28;26.50;55.60
67817;DHT22;54614;47.576;7.524;2023-05-10T09:47:58;26.50;55.60
67817;DHT22;54614;47.576;7.524;2023-05-10T09:50:26;26.50;55.60
67817;DHT22;54614;47.576;7.524;2023-05-10T09:55:23;26.50;55.40
67817;DHT22;54614;47.576;7.524;2023-05-10T09:58:03;26.50;55.50
67817;DHT22;54614;47.576;7.524;2023-05-10T10:00:44;26.60;55.60
67817;DHT22;54614;47.576;7.524;2023-05-10T10:03:15;26.50;55.60
67817;DHT22;54614;47.576;7.524;2023-05-10T10:05:47;26.50;55.60
67817;DHT22;54614;47.576;7.524;2023-05-10T10:08:15;26.60;55.70
67817;DHT22;54614;47.576;7.524;2023-05-10T10:10:41;26.60;55.60
67817;DHT22;54614;47.576;7.524;2023-05-10T10:13:09;26.60;55.60
67817;DHT22;54614;47.576;7.524;2023-05-10T10:15:35;26.70;55.70
67817;DHT22;54614;47.576;7.524;2023-05-10T10:18:01;26.70;55.60
67817;DHT22;54614;47.576;7.524;2023-05-10T10:20:29;26.70;55.50
67817;DHT22;54614;47.576;7.524;2023-05-10T10:22:55;26.70;55.50
67817;DHT22;54614;47.576;7.524;2023-05-10T10:25:21;26.70;55.50
67817;DHT22;54614;47.576;7.524;2023-05-10T10:30:32;26.70;55.40
67817;DHT22;54614;47.576;7.524;2023-05-10T10:33:18;26.70;55.30
67817;DHT22;54614;47.576;7.524;2023-05-10T10:35:59;26.70;55.30
67817;DHT22;54614;47.576;7.524;2023-05-10T10:38:56;26.70;55.30
67817;DHT22;54614;47.576;7.524;2023-05-10T10:47:06;26.70;55.20
67817;DHT22;54614;47.576;7.524;2023-05-10T10:52:35;26.70;55.20
67817;DHT22;54614;47.576;7.524;2023-05-10T10:55:22;26.70;55.20
67817;DHT22;54614;47.576;7.524;2023-05-10T10:57:53;26.70;55.20
67817;DHT22;54614;47.576;7.524;2023-05-10T11:00:30;26.70;55.00
67817;DHT22;54614;47.576;7.524;2023-05-10T11:03:06;26.70;55.00
67817;DHT22;54614;47.576;7.524;2023-05-10T11:05:49;26.70;54.90
67817;DHT22;54614;47.576;7.524;2023-05-10T11:08:30;26.70;55.00
67817;DHT22;54614;47.576;7.524;2023-05-10T11:13:44;26.80;55.00
67817;DHT22;54614;47.576;7.524;2023-05-10T11:16:20;26.70;55.00
67817;DHT22;54614;47.576;7.524;2023-05-10T11:21:22;26.70;54.90
67817;DHT22;54614;47.576;7.524;2023-05-10T11:23:50;26.70;54.80
67817;DHT22;54614;47.576;7.524;2023-05-10T11:26:21;26.70;54.80
67817;DHT22;54614;47.576;7.524;2023-05-10T11:28:53;26.70;54.80
67817;DHT22;54614;47.576;7.524;2023-05-10T11:31:22;26.70;54.70
67817;DHT22;54614;47.576;7.524;2023-05-10T11:33:50;26.70;54.70
67817;DHT22;54614;47.576;7.524;2023-05-10T11:36:19;26.70;54.40
67817;DHT22;54614;47.576;7.524;2023-05-10T11:38:55;26.70;54.50
67817;DHT22;54614;47.576;7.524;2023-05-10T11:41:23;26.70;54.50
67817;DHT22;54614;47.576;7.524;2023-05-10T11:43:51;26.70;54.60
67817;DHT22;54614;47.576;7.524;2023-05-10T11:46:20;26.70;54.70
67817;DHT22;54614;47.576;7.524;2023-05-10T11:48:49;26.70;54.70
67817;DHT22;54614;47.576;7.524;2023-05-10T11:51:24;26.70;54.70
67817;DHT22;54614;47.576;7.524;2023-05-10T11:53:53;26.70;54.70
67817;DHT22;54614;47.576;7.524;2023-05-10T11:56:20;26.70;54.60
67817;DHT22;54614;47.576;7.524;2023-05-10T11:58:58;26.70;54.60
67817;DHT22;54614;47.576;7.524;2023-05-10T12:01:26;26.70;54.50
67817;DHT22;54614;47.576;7.524;2023-05-10T12:03:55;26.70;54.60
67817;DHT22;54614;47.576;7.524;2023-05-10T12:06:32;26.70;54.60
67817;DHT22;54614;47.576;7.524;2023-05-10T12:09:07;26.70;54.70
67817;DHT22;54614;47.576;7.524;2023-05-10T12:11:37;26.70;54.70
67817;DHT22;54614;47.576;7.524;2023-05-10T12:14:05;26.70;54.80
67817;DHT22;54614;47.576;7.524;2023-05-10T12:16:32;26.70;54.80
67817;DHT22;54614;47.576;7.524;2023-05-10T12:18:59;26.70;54.90
67817;DHT22;54614;47.576;7.524;2023-05-10T12:21:28;26.70;54.80
67817;DHT22;54614;47.576;7.524;2023-05-10T12:24:00;26.70;54.70
67817;DHT22;54614;47.576;7.524;2023-05-10T12:26:29;26.70;54.70
67817;DHT22;54614;47.576;7.524;2023-05-10T12:29:11;26.70;54.70
67817;DHT22;54614;47.576;7.524;2023-05-10T12:31:57;26.70;54.70
67817;DHT22;54614;47.576;7.524;2023-05-10T12:34:32;26.70;54.70
67817;DHT22;54614;47.576;7.524;2023-05-10T12:36:59;26.70;54.70
67817;DHT22;54614;47.576;7.524;2023-05-10T12:39:25;26.70;54.70
67817;DHT22;54614;47.576;7.524;2023-05-10T12:41:52;26.70;54.70
67817;DHT22;54614;47.576;7.524;2023-05-10T12:44:18;26.70;54.80
67817;DHT22;54614;47.576;7.524;2023-05-10T12:46:44;26.70;54.70
67817;DHT22;54614;47.576;7.524;2023-05-10T12:49:10;26.80;54.60
67817;DHT22;54614;47.576;7.524;2023-05-10T12:51:36;26.80;54.70
67817;DHT22;54614;47.576;7.524;2023-05-10T12:54:02;26.80;54.60
67817;DHT22;54614;47.576;7.524;2023-05-10T12:56:29;26.80;54.60
67817;DHT22;54614;47.576;7.524;2023-05-10T12:58:54;26.70;54.60
67817;DHT22;54614;47.576;7.524;2023-05-10T13:01:20;26.80;54.70
67817;DHT22;54614;47.576;7.524;2023-05-10T13:03:46;26.70;54.70
67817;DHT22;54614;47.576;7.524;2023-05-10T13:06:12;26.70;54.80
67817;DHT22;54614;47.576;7.524;2023-05-10T13:08:39;26.70;54.70
67817;DHT22;54614;47.576;7.524;2023-05-10T13:11:05;26.70;54.80
67817;DHT22;54614;47.576;7.524;2023-05-10T13:13:31;26.70;54.80
67817;DHT22;54614;47.576;7.524;2023-05-10T13:15:57;26.80;54.60
67817;DHT22;54614;47.576;7.524;2023-05-10T13:18:23;26.80;54.70
67817;DHT22;54614;47.576;7.524;2023-05-10T13:20:49;26.80;54.80
67817;DHT22;54614;47.576;7.524;2023-05-10T13:23:15;26.70;54.70
67817;DHT22;54614;47.576;7.524;2023-05-10T13:25:41;26.70;54.70
67817;DHT22;54614;47.576;7.524;2023-05-10T13:28:07;26.70;54.70
67817;DHT22;54614;47.576;7.524;2023-05-10T13:30:32;26.80;54.80
67817;DHT22;54614;47.576;7.524;2023-05-10T13:32:58;26.70;54.70
67817;DHT22;54614;47.576;7.524;2023-05-10T13:35:24;26.70;54.70
67817;DHT22;54614;47.576;7.524;2023-05-10T13:37:50;26.80;54.70
67817;DHT22;54614;47.576;7.524;2023-05-10T13:40:16;26.80;54.70
67817;DHT22;54614;47.576;7.524;2023-05-10T13:42:42;26.80;54.50
67817;DHT22;54614;47.576;7.524;2023-05-10T13:45:08;26.80;54.70
67817;DHT22;54614;47.576;7.524;2023-05-10T13:47:34;26.80;54.80
67817;DHT22;54614;47.576;7.524;2023-05-10T13:50:00;26.70;54.80
67817;DHT22;54614;47.576;7.524;2023-05-10T13:52:26;26.70;54.70
67817;DHT22;54614;47.576;7.524;2023-05-10T13:54:52;26.70;54.70
67817;DHT22;54614;47.576;7.524;2023-05-10T13:57:20;26.70;54.60
67817;DHT22;54614;47.576;7.524;2023-05-10T13:59:46;26.70;54.60
67817;DHT22;54614;47.576;7.524;2023-05-10T14:02:12;26.70;54.60
67817;DHT22;54614;47.576;7.524;2023-05-10T14:04:38;26.70;54.60
67817;DHT22;54614;47.576;7.524;2023-05-10T14:07:04;26.70;54.70
67817;DHT22;54614;47.576;7.524;2023-05-10T14:09:30;26.70;53.90
67817;DHT22;54614;47.576;7.524;2023-05-10T14:11:56;26.80;54.20
67817;DHT22;54614;47.576;7.524;2023-05-10T14:14:22;26.80;54.20
67817;DHT22;54614;47.576;7.524;2023-05-10T14:16:48;26.70;54.20
67817;DHT22;54614;47.576;7.524;2023-05-10T14:19:14;26.70;54.50
67817;DHT22;54614;47.576;7.524;2023-05-10T14:21:39;26.60;54.70
67817;DHT22;54614;47.576;7.524;2023-05-10T14:24:05;26.50;54.90
67817;DHT22;54614;47.576;7.524;2023-05-10T14:26:32;26.50;55.10
67817;DHT22;54614;47.576;7.524;2023-05-10T14:28:59;26.50;55.20
67817;DHT22;54614;47.576;7.524;2023-05-10T14:31:25;26.40;55.50
67817;DHT22;54614;47.576;7.524;2023-05-10T14:33:51;26.40;55.40
67817;DHT22;54614;47.576;7.524;2023-05-10T14:36:17;26.50;55.40
67817;DHT22;54614;47.576;7.524;2023-05-10T14:38:43;26.50;55.20
67817;DHT22;54614;47.576;7.524;2023-05-10T14:41:09;26.50;55.30
67817;DHT22;54614;47.576;7.524;2023-05-10T14:43:39;26.40;55.40
67817;DHT22;54614;47.576;7.524;2023-05-10T14:46:05;26.40;55.70
67817;DHT22;54614;47.576;7.524;2023-05-10T14:48:31;26.40;56.00
67817;DHT22;54614;47.576;7.524;2023-05-10T14:50:57;26.40;56.00
67817;DHT22;54614;47.576;7.524;2023-05-10T14:53:23;26.50;56.00
67817;DHT22;54614;47.576;7.524;2023-05-10T14:55:48;26.50;56.00
67817;DHT22;54614;47.576;7.524;2023-05-10T14:58:14;26.50;56.10
67817;DHT22;54614;47.576;7.524;2023-05-10T15:00:40;26.40;56.10
67817;DHT22;54614;47.576;7.524;2023-05-10T15:03:06;26.40;56.30
67817;DHT22;54614;47.576;7.524;2023-05-10T15:05:32;26.50;56.10
67817;DHT22;54614;47.576;7.524;2023-05-10T15:07:57;26.50;55.90
67817;DHT22;54614;47.576;7.524;2023-05-10T15:10:23;26.40;56.00
67817;DHT22;54614;47.576;7.524;2023-05-10T15:12:50;26.50;55.50
67817;DHT22;54614;47.576;7.524;2023-05-10T15:15:15;26.70;54.80
67817;DHT22;54614;47.576;7.524;2023-05-10T15:17:41;26.90;54.60
67817;DHT22;54614;47.576;7.524;2023-05-10T15:20:07;26.90;54.50
67817;DHT22;54614;47.576;7.524;2023-05-10T15:22:34;27.00;54.50
67817;DHT22;54614;47.576;7.524;2023-05-10T15:25:04;27.00;54.50
67817;DHT22;54614;47.576;7.524;2023-05-10T15:27:30;27.00;54.40
67817;DHT22;54614;47.576;7.524;2023-05-10T15:29:56;27.00;54.20
67817;DHT22;54614;47.576;7.524;2023-05-10T15:32:22;27.00;53.90
67817;DHT22;54614;47.576;7.524;2023-05-10T15:34:48;27.00;53.80
67817;DHT22;54614;47.576;7.524;2023-05-10T15:37:13;27.00;53.80
67817;DHT22;54614;47.576;7.524;2023-05-10T15:39:39;27.00;53.90
67817;DHT22;54614;47.576;7.524;2023-05-10T15:42:05;27.00;53.70
67817;DHT22;54614;47.576;7.524;2023-05-10T15:44:31;26.70;50.40
67817;DHT22;54614;47.576;7.524;2023-05-10T15:46:56;26.40;50.10
67817;DHT22;54614;47.576;7.524;2023-05-10T15:49:22;26.20;50.30
67817;DHT22;54614;47.576;7.524;2023-05-10T15:51:48;26.10;50.70
67817;DHT22;54614;47.576;7.524;2023-05-10T15:54:14;26.00;50.90
67817;DHT22;54614;47.576;7.524;2023-05-10T15:56:39;25.90;51.40
67817;DHT22;54614;47.576;7.524;2023-05-10T15:59:05;25.90;51.80
67817;DHT22;54614;47.576;7.524;2023-05-10T16:01:33;25.80;52.10
67817;DHT22;54614;47.576;7.524;2023-05-10T16:03:59;25.70;52.20